createdAt,value
2023-01-29T00:02:27.143Z,3.22
2023-01-29T00:05:48.972Z,3.42
2023-01-29T00:09:13.666Z,3.45
2023-01-29T00:12:35.848Z,3.38
2023-01-29T00:16:03.716Z,3.38
2023-01-29T00:19:28.138Z,3.36
2023-01-29T00:22:49.795Z,3.39
2023-01-29T00:26:16.444Z,3.38
2023-01-29T00:29:38.033Z,3.34
2023-01-29T00:32:59.637Z,3.34
2023-01-29T00:36:22.390Z,3.42
2023-01-29T00:39:48.490Z,3.43
2023-01-29T00:43:28.749Z,3.15
2023-01-29T00:46:55.020Z,3.42
2023-01-29T00:50:16.901Z,3.35
2023-01-29T00:53:38.745Z,3.31
2023-01-29T00:57:01.142Z,3.10
2023-01-29T01:00:25.146Z,3.03
2023-01-29T01:03:48.761Z,2.86
2023-01-29T01:10:33.342Z,2.86
2023-01-29T01:14:02.107Z,2.83
2023-01-29T01:17:26.301Z,2.72
2023-01-29T01:20:51.694Z,2.62
2023-01-29T01:24:13.424Z,2.69
2023-01-29T01:27:35.390Z,2.67
2023-01-29T01:30:56.991Z,2.71
2023-01-29T01:34:22.170Z,2.65
2023-01-29T01:37:43.721Z,2.48
2023-01-29T01:41:05.367Z,2.42
2023-01-29T01:44:54.599Z,2.32
2023-01-29T01:48:24.916Z,2.28
2023-01-29T01:51:50.941Z,2.31
2023-01-29T01:55:14.945Z,2.34
2023-01-29T01:58:50.537Z,2.24
2023-01-29T02:02:32.308Z,2.18
2023-01-29T02:06:16.138Z,2.24
2023-01-29T02:09:49.217Z,2.18
2023-01-29T02:13:19.478Z,2.20
2023-01-29T02:16:41.052Z,2.28
2023-01-29T02:20:14.521Z,2.28
2023-01-29T02:24:08.512Z,2.18
2023-01-29T02:27:38.486Z,2.15
2023-01-29T02:31:25.243Z,2.14
2023-01-29T02:35:34.588Z,2.18
2023-01-29T02:39:36.512Z,2.07
2023-01-29T02:43:21.043Z,1.96
2023-01-29T02:47:07.049Z,2.03
2023-01-29T02:50:38.917Z,1.90
2023-01-29T02:54:27.488Z,1.97
2023-01-29T02:57:56.354Z,2.04
2023-01-29T03:01:23.431Z,1.90
2023-01-29T03:04:53.179Z,1.76
2023-01-29T03:08:21.872Z,1.71
2023-01-29T03:11:50.184Z,1.71
2023-01-29T03:15:25.197Z,1.64
2023-01-29T03:18:54.799Z,1.56
2023-01-29T03:22:22.001Z,1.64
2023-01-29T03:26:03.307Z,1.66
2023-01-29T03:29:46.246Z,1.74
2023-01-29T03:33:12.394Z,1.73
2023-01-29T03:36:45.922Z,1.88
2023-01-29T03:40:09.299Z,2.06
2023-01-29T03:44:12.785Z,1.97
2023-01-29T03:47:37.607Z,1.97
2023-01-29T03:51:24.569Z,2.10
2023-01-29T03:54:57.441Z,2.01
2023-01-29T03:58:37.701Z,1.96
2023-01-29T04:02:07.233Z,2.03
2023-01-29T04:05:33.922Z,1.98
2023-01-29T04:09:07.467Z,2.01
2023-01-29T04:12:35.608Z,1.96
2023-01-29T04:16:01.288Z,1.94
2023-01-29T04:19:23.913Z,2.15
2023-01-29T04:22:50.442Z,2.31
2023-01-29T04:26:41.665Z,2.18
2023-01-29T04:30:28.109Z,2.15
2023-01-29T04:34:19.739Z,2.11
2023-01-29T04:37:53.462Z,2.14
2023-01-29T04:41:26.633Z,2.22
2023-01-29T04:45:01.489Z,2.21
2023-01-29T04:48:27.340Z,2.15
2023-01-29T04:51:57.407Z,2.13
2023-01-29T04:55:33.451Z,2.25
2023-01-29T04:59:18.089Z,2.35
2023-01-29T05:02:44.072Z,2.44
2023-01-29T05:06:08.148Z,2.52
2023-01-29T05:09:30.727Z,2.31
2023-01-29T05:13:00.557Z,2.42
2023-01-29T05:16:30.110Z,2.42
2023-01-29T05:19:51.720Z,2.56
2023-01-29T05:23:20.763Z,2.52
2023-01-29T05:27:01.400Z,2.66
2023-01-29T05:30:22.877Z,2.38
2023-01-29T05:33:44.413Z,2.48
2023-01-29T05:37:06.205Z,2.48
2023-01-29T05:40:30.047Z,2.48
2023-01-29T05:43:51.885Z,2.52
2023-01-29T05:47:21.011Z,2.49
2023-01-29T05:50:45.330Z,2.57
2023-01-29T05:54:10.891Z,2.50
2023-01-29T05:57:32.487Z,2.56
2023-01-29T06:01:01.152Z,2.60
2023-01-29T06:04:22.987Z,2.66
2023-01-29T06:07:47.366Z,2.60
2023-01-29T06:11:16.484Z,2.69
2023-01-29T06:14:38.078Z,2.67
2023-01-29T06:17:59.738Z,2.69
2023-01-29T06:21:21.296Z,2.67
2023-01-29T06:24:45.765Z,2.69
2023-01-29T06:28:07.483Z,2.75
2023-01-29T06:31:39.606Z,2.76
2023-01-29T06:35:01.500Z,2.76
2023-01-29T06:38:23.371Z,2.79
2023-01-29T06:41:47.293Z,2.79
2023-01-29T06:45:09.698Z,2.66
2023-01-29T06:48:31.343Z,2.65
2023-01-29T06:51:52.932Z,2.72
2023-01-29T06:55:14.519Z,2.59
2023-01-29T06:58:39.197Z,2.67
2023-01-29T07:02:05.737Z,2.79
2023-01-29T07:05:27.575Z,2.76
2023-01-29T07:08:49.133Z,2.86
2023-01-29T07:12:13.908Z,2.94
2023-01-29T07:15:38.302Z,2.99
2023-01-29T07:19:02.249Z,2.71
2023-01-29T07:22:23.855Z,2.14
2023-01-29T07:25:50.341Z,2.32
2023-01-29T07:29:11.902Z,2.46
2023-01-29T07:32:33.517Z,2.69
2023-01-29T07:35:55.154Z,2.55
2023-01-29T07:39:18.814Z,2.76
2023-01-29T07:42:42.236Z,2.75
2023-01-29T07:46:05.413Z,2.62
2023-01-29T07:49:31.520Z,2.67
2023-01-29T07:52:58.821Z,2.93
2023-01-29T07:56:20.431Z,2.96
2023-01-29T07:59:42.026Z,2.93
2023-01-29T08:03:12.587Z,2.87
2023-01-29T08:06:36.708Z,2.97
2023-01-29T08:10:00.541Z,3.15
2023-01-29T08:13:29.454Z,3.07
2023-01-29T08:16:53.455Z,3.22
2023-01-29T08:20:18.423Z,2.97
2023-01-29T08:23:40.250Z,2.80
2023-01-29T08:27:04.550Z,3.15
2023-01-29T08:30:31.362Z,3.03
2023-01-29T08:33:57.089Z,2.66
2023-01-29T08:37:20.909Z,2.59
2023-01-29T08:40:47.293Z,2.53
2023-01-29T08:44:09.033Z,2.34
2023-01-29T08:47:31.093Z,2.21
2023-01-29T08:51:00.269Z,2.52
2023-01-29T08:54:26.689Z,2.28
2023-01-29T08:57:48.298Z,2.34
2023-01-29T09:01:13.935Z,2.42
2023-01-29T09:04:38.019Z,2.39
2023-01-29T09:07:59.736Z,2.49
2023-01-29T09:11:21.342Z,2.55
2023-01-29T09:14:43.009Z,2.69
2023-01-29T09:18:05.391Z,2.62
2023-01-29T09:21:27.137Z,2.57
2023-01-29T09:24:51.649Z,2.75
2023-01-29T09:28:17.626Z,2.77
2023-01-29T09:31:39.342Z,2.71
2023-01-29T09:35:01.059Z,2.63
2023-01-29T09:38:24.831Z,2.60
2023-01-29T09:42:07.686Z,2.49
2023-01-29T09:45:30.537Z,2.63
2023-01-29T09:49:00.526Z,2.86
2023-01-29T09:52:27.155Z,2.82
2023-01-29T09:56:04.750Z,2.75
2023-01-29T09:59:31.133Z,2.75
2023-01-29T10:03:17.606Z,2.83
2023-01-29T10:06:50.771Z,2.92
2023-01-29T10:10:33.613Z,3.21
2023-01-29T10:14:14.435Z,3.05
2023-01-29T10:17:54.716Z,3.05
2023-01-29T10:21:40.055Z,2.97
2023-01-29T10:25:06.636Z,3.22
2023-01-29T10:28:48.434Z,2.83
2023-01-29T10:32:16.400Z,2.76
2023-01-29T10:35:55.352Z,2.71
2023-01-29T10:39:25.425Z,2.93
2023-01-29T10:42:54.343Z,3.15
2023-01-29T10:46:45.604Z,3.08
2023-01-29T10:50:28.411Z,2.93
2023-01-29T10:54:05.474Z,2.84
2023-01-29T10:57:35.878Z,2.99
2023-01-29T11:00:58.555Z,2.35
2023-01-29T11:04:22.861Z,2.79
2023-01-29T11:07:46.712Z,3.07
2023-01-29T11:11:13.993Z,3.03
2023-01-29T11:14:55.730Z,2.77
2023-01-29T11:18:17.509Z,2.24
2023-01-29T11:21:58.288Z,2.50
2023-01-29T11:25:20.799Z,2.79
2023-01-29T11:28:50.930Z,2.77
2023-01-29T11:32:29.722Z,2.80
2023-01-29T11:35:52.759Z,2.80
2023-01-29T11:39:19.506Z,2.63
2023-01-29T11:42:43.585Z,2.84
2023-01-29T11:46:11.730Z,2.93
2023-01-29T11:49:36.219Z,3.07
2023-01-29T11:53:03.741Z,3.18
2023-01-29T11:56:35.122Z,3.35
2023-01-29T12:00:00.881Z,3.38
2023-01-29T12:03:25.327Z,2.93
2023-01-29T12:06:52.034Z,2.46
2023-01-29T12:10:36.968Z,2.50
2023-01-29T12:14:01.302Z,2.90
2023-01-29T12:17:26.741Z,2.87
2023-01-29T12:20:55.123Z,2.99
2023-01-29T12:24:29.836Z,2.66
2023-01-29T12:28:15.912Z,2.86
2023-01-29T12:31:51.667Z,2.82
2023-01-29T12:35:32.508Z,2.45
2023-01-29T12:38:54.555Z,2.39
2023-01-29T12:42:24.456Z,2.48
2023-01-29T12:45:52.182Z,2.80
2023-01-29T12:49:22.479Z,2.46
2023-01-29T12:52:50.808Z,2.44
2023-01-29T12:56:18.519Z,2.76
2023-01-29T12:59:47.484Z,2.62
2023-01-29T13:03:17.053Z,2.84
2023-01-29T13:06:59.544Z,2.89
2023-01-29T13:10:30.449Z,2.48
2023-01-29T13:14:02.234Z,2.75
2023-01-29T13:17:31.325Z,3.07
2023-01-29T13:20:55.845Z,3.15
2023-01-29T13:24:24.899Z,3.35
2023-01-29T13:27:47.897Z,2.97
2023-01-29T13:31:39.183Z,3.10
2023-01-29T13:35:17.727Z,3.39
2023-01-29T13:38:39.638Z,3.61
2023-01-29T13:42:14.927Z,3.68
2023-01-29T13:45:47.947Z,3.59
2023-01-29T13:49:37.628Z,2.73
2023-01-29T13:53:11.528Z,2.44
2023-01-29T13:56:35.432Z,2.44
2023-01-29T13:59:59.539Z,2.72
2023-01-29T14:03:23.446Z,2.99
2023-01-29T14:06:50.773Z,3.24
2023-01-29T14:10:21.400Z,2.92
2023-01-29T14:13:49.888Z,2.93
2023-01-29T14:17:12.173Z,2.29
2023-01-29T14:20:48.960Z,2.52
2023-01-29T14:24:29.472Z,2.25
2023-01-29T14:27:56.071Z,2.63
2023-01-29T14:31:29.593Z,2.41
2023-01-29T14:34:57.793Z,2.76
2023-01-29T14:38:26.401Z,2.67
2023-01-29T14:41:51.388Z,2.28
2023-01-29T14:45:31.295Z,2.55
2023-01-29T14:48:53.361Z,2.41
2023-01-29T14:52:15.917Z,2.42
2023-01-29T14:55:41.845Z,2.31
2023-01-29T14:59:29.377Z,2.01
2023-01-29T15:03:01.948Z,2.00
2023-01-29T15:06:45.790Z,1.58
2023-01-29T15:10:23.241Z,2.03
2023-01-29T15:13:55.834Z,1.56
2023-01-29T15:17:33.042Z,1.53
2023-01-29T15:21:17.513Z,1.48
2023-01-29T15:24:41.114Z,1.53
2023-01-29T15:28:08.585Z,1.74
2023-01-29T15:31:33.063Z,2.39
2023-01-29T15:34:56.840Z,2.92
2023-01-29T15:38:26.833Z,3.49
2023-01-29T15:41:49.467Z,3.80
2023-01-29T15:45:32.806Z,4.11
2023-01-29T15:48:57.203Z,3.83
2023-01-29T15:52:26.708Z,3.79
2023-01-29T15:55:51.761Z,3.54
2023-01-29T15:59:22.008Z,3.54
2023-01-29T16:02:46.110Z,3.52
2023-01-29T16:06:08.818Z,3.14
2023-01-29T16:09:30.733Z,3.17
2023-01-29T16:12:53.094Z,3.38
2023-01-29T16:16:14.868Z,3.15
2023-01-29T16:19:36.554Z,2.53
2023-01-29T16:22:58.759Z,2.04
2023-01-29T16:26:29.292Z,2.06
2023-01-29T16:29:51.767Z,1.69
2023-01-29T16:33:17.479Z,2.15
2023-01-29T16:36:47.747Z,2.34
2023-01-29T16:40:37.525Z,3.36
2023-01-29T16:44:03.165Z,3.43
2023-01-29T16:47:43.321Z,3.97
2023-01-29T16:51:06.963Z,3.86
2023-01-29T16:54:31.016Z,3.31
2023-01-29T16:57:56.351Z,3.25
2023-01-29T17:01:18.577Z,2.87
2023-01-29T17:04:43.916Z,3.38
2023-01-29T17:08:06.601Z,3.35
2023-01-29T17:11:33.682Z,3.35
2023-01-29T17:15:04.891Z,3.30
2023-01-29T17:18:33.989Z,2.83
2023-01-29T17:21:59.138Z,2.80
2023-01-29T17:25:21.978Z,2.32
2023-01-29T17:28:44.544Z,2.82
2023-01-29T17:32:06.421Z,3.10
2023-01-29T17:35:28.316Z,3.22
2023-01-29T17:38:54.679Z,3.21
2023-01-29T17:42:16.410Z,2.93
2023-01-29T17:45:41.697Z,2.96
2023-01-29T17:49:04.603Z,3.01
2023-01-29T17:52:26.191Z,2.96
2023-01-29T17:55:50.957Z,2.72
2023-01-29T17:59:17.759Z,3.01
2023-01-29T18:02:39.391Z,2.89
2023-01-29T18:06:03.221Z,2.86
2023-01-29T18:09:27.964Z,2.92
2023-01-29T18:12:49.925Z,2.93
2023-01-29T18:16:11.529Z,2.96
2023-01-29T18:19:33.244Z,2.89
2023-01-29T18:22:57.361Z,2.35
2023-01-29T18:26:18.994Z,2.38
2023-01-29T18:29:40.899Z,2.60
2023-01-29T18:33:02.494Z,2.67
2023-01-29T18:36:26.649Z,2.52
2023-01-29T18:39:48.282Z,2.56
2023-01-29T18:43:12.349Z,2.69
2023-01-29T18:46:36.515Z,2.76
2023-01-29T18:49:58.209Z,2.69
2023-01-29T18:53:22.362Z,2.65
2023-01-29T18:57:13.184Z,2.41
2023-01-29T19:00:27.696Z,2.25
2023-01-29T19:03:49.306Z,2.41
2023-01-29T19:07:12.439Z,1.83
2023-01-29T19:10:34.159Z,2.08
2023-01-29T19:13:57.967Z,2.15
2023-01-29T19:17:20.322Z,2.44
2023-01-29T19:20:44.407Z,2.48
2023-01-29T19:24:06.574Z,2.27
2023-01-29T19:27:30.550Z,2.10
2023-01-29T19:30:57.212Z,1.71
2023-01-29T19:34:19.119Z,2.15
2023-01-29T19:37:43.811Z,2.28
2023-01-29T19:41:05.818Z,2.41
2023-01-29T19:44:27.911Z,2.32
2023-01-29T19:47:52.453Z,2.22
2023-01-29T19:51:14.508Z,2.25
2023-01-29T19:54:36.087Z,2.38
2023-01-29T19:57:58.803Z,2.28
2023-01-29T20:01:21.344Z,2.46
2023-01-29T20:04:46.251Z,2.38
2023-01-29T20:08:07.848Z,2.08
2023-01-29T20:11:30.800Z,2.21
2023-01-29T20:14:52.446Z,2.24
2023-01-29T20:18:15.005Z,2.10
2023-01-29T20:21:37.547Z,2.24
2023-01-29T20:24:59.324Z,2.21
2023-01-29T20:28:25.509Z,1.73
2023-01-29T20:31:49.473Z,0.98
2023-01-29T20:35:11.417Z,1.02
2023-01-29T20:38:34.528Z,0.83
2023-01-29T20:41:57.364Z,0.81
2023-01-29T20:45:19.838Z,0.35
2023-01-29T20:48:42.360Z,0.46
2023-01-29T20:52:07.581Z,0.66
2023-01-29T20:55:29.234Z,0.95
2023-01-29T20:58:51.363Z,1.35
2023-01-29T21:02:12.982Z,1.76
2023-01-29T21:05:34.648Z,1.97
2023-01-29T21:08:56.385Z,1.96
2023-01-29T21:12:20.242Z,2.01
2023-01-29T21:15:44.904Z,2.06
2023-01-29T21:19:10.069Z,2.10
2023-01-29T21:22:33.120Z,2.46
2023-01-29T21:26:03.503Z,2.69
2023-01-29T21:29:25.474Z,2.69
2023-01-29T21:32:49.744Z,2.42
2023-01-29T21:36:13.201Z,2.27
2023-01-29T21:39:37.326Z,2.25
2023-01-29T21:43:19.287Z,2.13
2023-01-29T21:46:41.132Z,2.01
2023-01-29T21:50:02.862Z,1.87
2023-01-29T21:53:24.737Z,2.00
2023-01-29T21:56:46.327Z,2.20
2023-01-29T22:00:12.038Z,2.44
2023-01-29T22:03:38.421Z,2.62
2023-01-29T22:07:00.142Z,2.36
2023-01-29T22:10:22.458Z,2.27
2023-01-29T22:13:46.236Z,1.66
2023-01-29T22:17:08.699Z,1.71
2023-01-29T22:20:31.072Z,1.84
2023-01-29T22:23:52.685Z,1.34
2023-01-29T22:27:15.173Z,1.59
2023-01-29T22:30:36.938Z,1.55
2023-01-29T22:34:01.233Z,1.83
2023-01-29T22:37:23.070Z,1.00
2023-01-29T22:40:56.387Z,0.91
2023-01-29T22:44:20.508Z,1.43
2023-01-29T22:47:42.078Z,1.76
2023-01-29T22:51:10.327Z,1.48
2023-01-29T22:54:35.528Z,1.62
2023-01-29T22:58:02.084Z,1.88
2023-01-29T23:01:27.061Z,2.06
2023-01-29T23:04:51.678Z,1.71
2023-01-29T23:08:13.337Z,1.59
2023-01-29T23:11:34.914Z,1.21
2023-01-29T23:14:56.490Z,1.00
2023-01-29T23:18:20.294Z,0.87
2023-01-29T23:21:41.857Z,0.57
2023-01-29T23:25:06.427Z,0.57
2023-01-29T23:28:28.012Z,0.01
2023-01-29T23:31:49.788Z,-0.06
2023-01-29T23:35:13.651Z,0.11
2023-01-29T23:38:37.515Z,0.22
2023-01-29T23:42:01.924Z,0.22
2023-01-29T23:45:23.615Z,0.16
2023-01-29T23:48:48.187Z,0.08
2023-01-29T23:52:09.812Z,0.26
2023-01-29T23:55:31.380Z,0.26
2023-01-29T23:58:56.860Z,0.08
